sensor_id;sensor_type;location;lat;lon;timestamp;P1;durP1;ratioP1;P2;durP2;ratioP2
8542;SDS011;4309;42.658;23.380;2023-03-01T00:00:13;7.65;;;3.90;;
8542;SDS011;4309;42.658;23.380;2023-03-01T00:00:46;6.55;;;3.75;;
8542;SDS011;4309;42.658;23.380;2023-03-01T00:01:18;6.55;;;3.85;;
8542;SDS011;4309;42.658;23.380;2023-03-01T00:01:52;5.68;;;3.60;;
8542;SDS011;4309;42.658;23.380;2023-03-01T00:02:23;5.85;;;3.80;;
8542;SDS011;4309;42.658;23.380;2023-03-01T00:02:56;7.10;;;3.28;;
8542;SDS011;4309;42.658;23.380;2023-03-01T00:03:27;5.47;;;2.90;;
8542;SDS011;4309;42.658;23.380;2023-03-01T00:03:59;8.10;;;3.45;;
8542;SDS011;4309;42.658;23.380;2023-03-01T00:04:30;5.32;;;3.58;;
8542;SDS011;4309;42.658;23.380;2023-03-01T00:05:02;6.78;;;3.05;;
8542;SDS011;4309;42.658;23.380;2023-03-01T00:05:35;5.85;;;3.30;;
8542;SDS011;4309;42.658;23.380;2023-03-01T00:06:07;6.22;;;3.75;;
8542;SDS011;4309;42.658;23.380;2023-03-01T00:06:38;6.85;;;4.32;;
8542;SDS011;4309;42.658;23.380;2023-03-01T00:07:11;5.20;;;3.38;;
8542;SDS011;4309;42.658;23.380;2023-03-01T00:07:43;7.30;;;4.40;;
8542;SDS011;4309;42.658;23.380;2023-03-01T00:08:13;6.10;;;3.60;;
8542;SDS011;4309;42.658;23.380;2023-03-01T00:08:47;6.35;;;3.58;;
8542;SDS011;4309;42.658;23.380;2023-03-01T00:09:19;9.13;;;3.55;;
8542;SDS011;4309;42.658;23.380;2023-03-01T00:09:50;6.47;;;3.33;;
8542;SDS011;4309;42.658;23.380;2023-03-01T00:10:22;6.00;;;3.17;;
8542;SDS011;4309;42.658;23.380;2023-03-01T00:10:59;5.43;;;2.83;;
8542;SDS011;4309;42.658;23.380;2023-03-01T00:11:33;4.85;;;3.30;;
8542;SDS011;4309;42.658;23.380;2023-03-01T00:12:07;4.38;;;2.92;;
8542;SDS011;4309;42.658;23.380;2023-03-01T00:12:38;5.10;;;3.30;;
8542;SDS011;4309;42.658;23.380;2023-03-01T00:13:09;5.27;;;3.07;;
8542;SDS011;4309;42.658;23.380;2023-03-01T00:13:40;5.82;;;3.20;;
8542;SDS011;4309;42.658;23.380;2023-03-01T00:14:14;6.32;;;3.28;;
8542;SDS011;4309;42.658;23.380;2023-03-01T00:14:47;5.45;;;2.85;;
8542;SDS011;4309;42.658;23.380;2023-03-01T00:15:21;4.25;;;2.45;;
8542;SDS011;4309;42.658;23.380;2023-03-01T00:15:53;4.60;;;2.67;;
8542;SDS011;4309;42.658;23.380;2023-03-01T00:16:25;5.18;;;2.83;;
8542;SDS011;4309;42.658;23.380;2023-03-01T00:16:58;5.13;;;3.38;;
8542;SDS011;4309;42.658;23.380;2023-03-01T00:17:31;4.93;;;2.90;;
8542;SDS011;4309;42.658;23.380;2023-03-01T00:18:03;4.97;;;2.88;;
8542;SDS011;4309;42.658;23.380;2023-03-01T00:19:07;4.88;;;2.50;;
8542;SDS011;4309;42.658;23.380;2023-03-01T00:19:42;4.63;;;2.95;;
8542;SDS011;4309;42.658;23.380;2023-03-01T00:20:14;5.05;;;3.17;;
8542;SDS011;4309;42.658;23.380;2023-03-01T00:20:49;4.82;;;2.72;;
8542;SDS011;4309;42.658;23.380;2023-03-01T00:21:22;4.53;;;2.60;;
8542;SDS011;4309;42.658;23.380;2023-03-01T00:21:55;3.95;;;2.45;;
8542;SDS011;4309;42.658;23.380;2023-03-01T00:22:27;4.55;;;2.92;;
8542;SDS011;4309;42.658;23.380;2023-03-01T00:23:03;4.75;;;2.78;;
8542;SDS011;4309;42.658;23.380;2023-03-01T00:23:35;5.65;;;3.13;;
8542;SDS011;4309;42.658;23.380;2023-03-01T00:24:07;4.55;;;3.00;;
8542;SDS011;4309;42.658;23.380;2023-03-01T00:24:41;4.78;;;2.58;;
8542;SDS011;4309;42.658;23.380;2023-03-01T00:25:13;4.45;;;2.75;;
8542;SDS011;4309;42.658;23.380;2023-03-01T00:25:45;4.63;;;2.85;;
8542;SDS011;4309;42.658;23.380;2023-03-01T00:26:17;4.53;;;2.58;;
8542;SDS011;4309;42.658;23.380;2023-03-01T00:26:52;3.95;;;2.45;;
8542;SDS011;4309;42.658;23.380;2023-03-01T00:27:24;4.10;;;2.10;;
8542;SDS011;4309;42.658;23.380;2023-03-01T00:27:56;3.78;;;2.13;;
8542;SDS011;4309;42.658;23.380;2023-03-01T00:28:29;4.43;;;2.45;;
8542;SDS011;4309;42.658;23.380;2023-03-01T00:29:01;5.95;;;2.60;;
8542;SDS011;4309;42.658;23.380;2023-03-01T00:29:34;4.57;;;2.47;;
8542;SDS011;4309;42.658;23.380;2023-03-01T00:30:06;4.55;;;2.40;;
8542;SDS011;4309;42.658;23.380;2023-03-01T00:31:17;3.90;;;2.25;;
8542;SDS011;4309;42.658;23.380;2023-03-01T00:31:51;3.97;;;2.22;;
8542;SDS011;4309;42.658;23.380;2023-03-01T00:32:23;3.53;;;1.80;;
8542;SDS011;4309;42.658;23.380;2023-03-01T00:32:55;4.28;;;2.20;;
8542;SDS011;4309;42.658;23.380;2023-03-01T00:33:27;3.65;;;2.17;;
8542;SDS011;4309;42.658;23.380;2023-03-01T00:34:00;4.25;;;2.55;;
8542;SDS011;4309;42.658;23.380;2023-03-01T00:34:34;4.68;;;2.42;;
8542;SDS011;4309;42.658;23.380;2023-03-01T00:35:07;4.88;;;2.63;;
8542;SDS011;4309;42.658;23.380;2023-03-01T00:35:39;4.45;;;2.63;;
8542;SDS011;4309;42.658;23.380;2023-03-01T00:36:13;3.95;;;2.47;;
8542;SDS011;4309;42.658;23.380;2023-03-01T00:36:46;4.40;;;2.42;;
8542;SDS011;4309;42.658;23.380;2023-03-01T00:37:19;4.10;;;2.08;;
8542;SDS011;4309;42.658;23.380;2023-03-01T00:37:51;4.43;;;1.92;;
8542;SDS011;4309;42.658;23.380;2023-03-01T00:38:29;4.13;;;2.08;;
8542;SDS011;4309;42.658;23.380;2023-03-01T00:39:02;4.60;;;2.17;;
8542;SDS011;4309;42.658;23.380;2023-03-01T00:39:35;4.57;;;2.42;;
8542;SDS011;4309;42.658;23.380;2023-03-01T00:40:08;4.05;;;2.15;;
8542;SDS011;4309;42.658;23.380;2023-03-01T00:40:41;4.15;;;1.95;;
8542;SDS011;4309;42.658;23.380;2023-03-01T00:41:14;4.05;;;2.33;;
8542;SDS011;4309;42.658;23.380;2023-03-01T00:41:47;6.03;;;2.40;;
8542;SDS011;4309;42.658;23.380;2023-03-01T00:42:20;4.75;;;2.58;;
8542;SDS011;4309;42.658;23.380;2023-03-01T00:42:53;3.65;;;2.17;;
8542;SDS011;4309;42.658;23.380;2023-03-01T00:43:25;5.13;;;2.60;;
8542;SDS011;4309;42.658;23.380;2023-03-01T00:43:58;3.30;;;1.88;;
8542;SDS011;4309;42.658;23.380;2023-03-01T00:44:30;4.20;;;2.42;;
8542;SDS011;4309;42.658;23.380;2023-03-01T00:45:03;4.10;;;2.70;;
8542;SDS011;4309;42.658;23.380;2023-03-01T00:45:36;3.60;;;1.80;;
8542;SDS011;4309;42.658;23.380;2023-03-01T00:46:09;3.03;;;1.77;;
8542;SDS011;4309;42.658;23.380;2023-03-01T00:46:45;3.92;;;2.10;;
8542;SDS011;4309;42.658;23.380;2023-03-01T00:47:17;4.60;;;2.65;;
8542;SDS011;4309;42.658;23.380;2023-03-01T00:47:49;6.78;;;2.97;;
8542;SDS011;4309;42.658;23.380;2023-03-01T00:48:21;3.72;;;2.10;;
8542;SDS011;4309;42.658;23.380;2023-03-01T00:48:54;4.18;;;2.40;;
8542;SDS011;4309;42.658;23.380;2023-03-01T00:49:26;4.63;;;2.65;;
8542;SDS011;4309;42.658;23.380;2023-03-01T00:50:00;4.60;;;2.58;;
8542;SDS011;4309;42.658;23.380;2023-03-01T00:50:32;4.25;;;2.50;;
8542;SDS011;4309;42.658;23.380;2023-03-01T00:51:07;4.20;;;2.42;;
8542;SDS011;4309;42.658;23.380;2023-03-01T00:51:41;3.92;;;2.05;;
8542;SDS011;4309;42.658;23.380;2023-03-01T00:52:13;4.45;;;2.33;;
8542;SDS011;4309;42.658;23.380;2023-03-01T00:52:45;4.18;;;2.40;;
8542;SDS011;4309;42.658;23.380;2023-03-01T00:53:18;4.05;;;2.53;;
8542;SDS011;4309;42.658;23.380;2023-03-01T00:53:50;4.22;;;2.05;;
8542;SDS011;4309;42.658;23.380;2023-03-01T00:54:23;4.18;;;2.80;;
8542;SDS011;4309;42.658;23.380;2023-03-01T00:54:57;3.80;;;2.08;;
8542;SDS011;4309;42.658;23.380;2023-03-01T00:55:31;3.65;;;1.88;;
8542;SDS011;4309;42.658;23.380;2023-03-01T00:56:03;4.20;;;2.10;;
8542;SDS011;4309;42.658;23.380;2023-03-01T00:56:37;4.38;;;2.42;;
8542;SDS011;4309;42.658;23.380;2023-03-01T00:57:12;4.18;;;2.47;;
8542;SDS011;4309;42.658;23.380;2023-03-01T00:57:44;4.45;;;2.08;;
8542;SDS011;4309;42.658;23.380;2023-03-01T00:58:16;4.13;;;2.40;;
8542;SDS011;4309;42.658;23.380;2023-03-01T00:58:49;3.90;;;2.30;;
8542;SDS011;4309;42.658;23.380;2023-03-01T00:59:22;4.15;;;2.42;;
8542;SDS011;4309;42.658;23.380;2023-03-01T00:59:54;4.75;;;2.60;;
8542;SDS011;4309;42.658;23.380;2023-03-01T01:00:26;3.92;;;2.15;;
8542;SDS011;4309;42.658;23.380;2023-03-01T01:00:59;4.13;;;2.40;;
8542;SDS011;4309;42.658;23.380;2023-03-01T01:01:32;4.72;;;2.38;;
8542;SDS011;4309;42.658;23.380;2023-03-01T01:02:07;4.10;;;2.28;;
8542;SDS011;4309;42.658;23.380;2023-03-01T01:02:39;4.80;;;2.45;;
8542;SDS011;4309;42.658;23.380;2023-03-01T01:03:11;3.92;;;2.38;;
8542;SDS011;4309;42.658;23.380;2023-03-01T01:03:45;3.55;;;2.08;;
8542;SDS011;4309;42.658;23.380;2023-03-01T01:04:18;4.55;;;2.70;;
8542;SDS011;4309;42.658;23.380;2023-03-01T01:04:51;4.05;;;2.33;;
8542;SDS011;4309;42.658;23.380;2023-03-01T01:05:23;5.30;;;2.50;;
8542;SDS011;4309;42.658;23.380;2023-03-01T01:05:55;4.28;;;2.65;;
8542;SDS011;4309;42.658;23.380;2023-03-01T01:06:28;3.38;;;2.13;;
8542;SDS011;4309;42.658;23.380;2023-03-01T01:07:02;4.22;;;2.00;;
8542;SDS011;4309;42.658;23.380;2023-03-01T01:07:34;5.20;;;2.42;;
8542;SDS011;4309;42.658;23.380;2023-03-01T01:08:06;2.90;;;1.63;;
8542;SDS011;4309;42.658;23.380;2023-03-01T01:08:38;3.83;;;2.45;;
8542;SDS011;4309;42.658;23.380;2023-03-01T01:09:11;3.67;;;2.40;;
8542;SDS011;4309;42.658;23.380;2023-03-01T01:09:48;3.60;;;1.83;;
8542;SDS011;4309;42.658;23.380;2023-03-01T01:10:20;3.90;;;2.10;;
8542;SDS011;4309;42.658;23.380;2023-03-01T01:10:53;3.83;;;2.08;;
8542;SDS011;4309;42.658;23.380;2023-03-01T01:11:25;3.20;;;1.88;;
8542;SDS011;4309;42.658;23.380;2023-03-01T01:11:58;4.82;;;2.90;;
8542;SDS011;4309;42.658;23.380;2023-03-01T01:12:31;3.53;;;2.08;;
8542;SDS011;4309;42.658;23.380;2023-03-01T01:13:04;3.88;;;2.45;;
8542;SDS011;4309;42.658;23.380;2023-03-01T01:13:36;3.33;;;1.85;;
8542;SDS011;4309;42.658;23.380;2023-03-01T01:14:08;3.75;;;1.98;;
8542;SDS011;4309;42.658;23.380;2023-03-01T01:14:41;3.88;;;2.60;;
8542;SDS011;4309;42.658;23.380;2023-03-01T01:15:13;3.53;;;2.17;;
8542;SDS011;4309;42.658;23.380;2023-03-01T01:15:47;3.40;;;1.83;;
8542;SDS011;4309;42.658;23.380;2023-03-01T01:16:21;3.85;;;2.03;;
8542;SDS011;4309;42.658;23.380;2023-03-01T01:16:55;4.13;;;2.50;;
8542;SDS011;4309;42.658;23.380;2023-03-01T01:17:31;3.70;;;2.30;;
8542;SDS011;4309;42.658;23.380;2023-03-01T01:18:04;5.65;;;1.67;;
8542;SDS011;4309;42.658;23.380;2023-03-01T01:18:36;3.58;;;2.00;;
8542;SDS011;4309;42.658;23.380;2023-03-01T01:19:08;3.33;;;1.80;;
8542;SDS011;4309;42.658;23.380;2023-03-01T01:19:42;3.08;;;1.77;;
8542;SDS011;4309;42.658;23.380;2023-03-01T01:20:14;4.18;;;2.08;;
8542;SDS011;4309;42.658;23.380;2023-03-01T01:20:46;3.40;;;2.00;;
8542;SDS011;4309;42.658;23.380;2023-03-01T01:21:21;3.50;;;1.83;;
8542;SDS011;4309;42.658;23.380;2023-03-01T01:21:55;3.53;;;1.92;;
8542;SDS011;4309;42.658;23.380;2023-03-01T01:22:28;3.95;;;2.30;;
8542;SDS011;4309;42.658;23.380;2023-03-01T01:23:00;2.88;;;1.70;;
8542;SDS011;4309;42.658;23.380;2023-03-01T01:23:32;3.50;;;1.75;;
8542;SDS011;4309;42.658;23.380;2023-03-01T01:24:05;3.03;;;1.83;;
8542;SDS011;4309;42.658;23.380;2023-03-01T01:24:38;2.83;;;1.55;;
8542;SDS011;4309;42.658;23.380;2023-03-01T01:25:10;4.15;;;2.00;;
8542;SDS011;4309;42.658;23.380;2023-03-01T01:25:43;3.33;;;1.80;;
8542;SDS011;4309;42.658;23.380;2023-03-01T01:26:16;3.70;;;2.25;;
8542;SDS011;4309;42.658;23.380;2023-03-01T01:26:49;3.35;;;1.75;;
8542;SDS011;4309;42.658;23.380;2023-03-01T01:27:22;3.53;;;1.90;;
8542;SDS011;4309;42.658;23.380;2023-03-01T01:27:55;3.20;;;1.92;;
8542;SDS011;4309;42.658;23.380;2023-03-01T01:28:26;3.15;;;2.15;;
8542;SDS011;4309;42.658;23.380;2023-03-01T01:29:03;3.30;;;1.80;;
8542;SDS011;4309;42.658;23.380;2023-03-01T01:29:36;3.03;;;1.85;;
8542;SDS011;4309;42.658;23.380;2023-03-01T01:30:09;3.78;;;1.80;;
8542;SDS011;4309;42.658;23.380;2023-03-01T01:30:43;3.55;;;1.90;;
8542;SDS011;4309;42.658;23.380;2023-03-01T01:31:15;3.17;;;1.73;;
8542;SDS011;4309;42.658;23.380;2023-03-01T01:31:49;3.60;;;2.08;;
8542;SDS011;4309;42.658;23.380;2023-03-01T01:32:21;3.53;;;1.88;;
8542;SDS011;4309;42.658;23.380;2023-03-01T01:32:54;3.53;;;2.00;;
8542;SDS011;4309;42.658;23.380;2023-03-01T01:33:26;2.92;;;1.52;;
8542;SDS011;4309;42.658;23.380;2023-03-01T01:34:01;3.58;;;2.03;;
8542;SDS011;4309;42.658;23.380;2023-03-01T01:34:34;3.17;;;1.90;;
8542;SDS011;4309;42.658;23.380;2023-03-01T01:35:06;3.60;;;1.83;;
8542;SDS011;4309;42.658;23.380;2023-03-01T01:35:39;2.92;;;1.60;;
8542;SDS011;4309;42.658;23.380;2023-03-01T01:36:11;3.78;;;1.90;;
8542;SDS011;4309;42.658;23.380;2023-03-01T01:36:43;4.07;;;1.70;;
8542;SDS011;4309;42.658;23.380;2023-03-01T01:37:20;2.97;;;1.67;;
8542;SDS011;4309;42.658;23.380;2023-03-01T01:37:52;3.35;;;1.30;;
8542;SDS011;4309;42.658;23.380;2023-03-01T01:39:19;3.53;;;1.83;;
8542;SDS011;4309;42.658;23.380;2023-03-01T01:39:52;2.88;;;1.55;;
8542;SDS011;4309;42.658;23.380;2023-03-01T01:40:24;3.30;;;1.63;;
8542;SDS011;4309;42.658;23.380;2023-03-01T01:40:56;3.20;;;1.67;;
8542;SDS011;4309;42.658;23.380;2023-03-01T01:41:27;3.42;;;2.03;;
8542;SDS011;4309;42.658;23.380;2023-03-01T01:42:01;3.13;;;1.58;;
8542;SDS011;4309;42.658;23.380;2023-03-01T01:42:34;3.15;;;2.00;;
8542;SDS011;4309;42.658;23.380;2023-03-01T01:43:08;3.38;;;1.70;;
8542;SDS011;4309;42.658;23.380;2023-03-01T01:43:49;2.95;;;1.55;;
8542;SDS011;4309;42.658;23.380;2023-03-01T01:44:42;3.20;;;1.70;;
8542;SDS011;4309;42.658;23.380;2023-03-01T01:45:31;2.65;;;1.70;;
8542;SDS011;4309;42.658;23.380;2023-03-01T01:46:06;3.97;;;1.75;;
8542;SDS011;4309;42.658;23.380;2023-03-01T01:46:47;3.10;;;1.73;;
8542;SDS011;4309;42.658;23.380;2023-03-01T01:47:25;3.30;;;1.98;;
8542;SDS011;4309;42.658;23.380;2023-03-01T01:47:58;2.90;;;1.70;;
8542;SDS011;4309;42.658;23.380;2023-03-01T01:48:37;3.60;;;2.30;;
8542;SDS011;4309;42.658;23.380;2023-03-01T01:49:24;2.70;;;1.33;;
8542;SDS011;4309;42.658;23.380;2023-03-01T01:50:00;3.67;;;1.90;;
8542;SDS011;4309;42.658;23.380;2023-03-01T01:50:32;3.00;;;1.77;;
8542;SDS011;4309;42.658;23.380;2023-03-01T01:51:11;3.50;;;1.90;;
8542;SDS011;4309;42.658;23.380;2023-03-01T01:51:45;3.40;;;1.90;;
8542;SDS011;4309;42.658;23.380;2023-03-01T01:52:22;3.97;;;2.13;;
8542;SDS011;4309;42.658;23.380;2023-03-01T01:52:58;3.58;;;1.88;;
8542;SDS011;4309;42.658;23.380;2023-03-01T01:53:30;3.28;;;1.50;;
8542;SDS011;4309;42.658;23.380;2023-03-01T01:54:02;3.25;;;2.08;;
8542;SDS011;4309;42.658;23.380;2023-03-01T01:54:46;4.43;;;2.38;;
8542;SDS011;4309;42.658;23.380;2023-03-01T01:55:25;2.55;;;1.23;;
8542;SDS011;4309;42.658;23.380;2023-03-01T01:55:58;2.95;;;2.00;;
8542;SDS011;4309;42.658;23.380;2023-03-01T01:56:36;3.42;;;1.98;;
8542;SDS011;4309;42.658;23.380;2023-03-01T01:57:12;3.03;;;1.73;;
8542;SDS011;4309;42.658;23.380;2023-03-01T01:57:48;3.28;;;2.08;;
8542;SDS011;4309;42.658;23.380;2023-03-01T01:58:24;3.08;;;2.05;;
8542;SDS011;4309;42.658;23.380;2023-03-01T01:59:00;3.60;;;2.25;;
8542;SDS011;4309;42.658;23.380;2023-03-01T01:59:31;3.20;;;1.63;;
8542;SDS011;4309;42.658;23.380;2023-03-01T02:00:07;3.35;;;2.10;;
8542;SDS011;4309;42.658;23.380;2023-03-01T02:00:43;3.10;;;1.70;;
8542;SDS011;4309;42.658;23.380;2023-03-01T02:01:14;2.90;;;1.65;;
8542;SDS011;4309;42.658;23.380;2023-03-01T02:01:47;3.28;;;1.88;;
8542;SDS011;4309;42.658;23.380;2023-03-01T02:02:19;3.38;;;2.10;;
8542;SDS011;4309;42.658;23.380;2023-03-01T02:02:54;3.00;;;1.67;;
8542;SDS011;4309;42.658;23.380;2023-03-01T02:03:29;4.35;;;1.83;;
8542;SDS011;4309;42.658;23.380;2023-03-01T02:04:08;2.92;;;1.67;;
8542;SDS011;4309;42.658;23.380;2023-03-01T02:04:40;5.75;;;1.92;;
8542;SDS011;4309;42.658;23.380;2023-03-01T02:05:14;3.00;;;1.60;;
8542;SDS011;4309;42.658;23.380;2023-03-01T02:05:55;3.70;;;2.00;;
8542;SDS011;4309;42.658;23.380;2023-03-01T02:06:29;3.10;;;2.28;;
8542;SDS011;4309;42.658;23.380;2023-03-01T02:07:07;3.22;;;1.65;;
8542;SDS011;4309;42.658;23.380;2023-03-01T02:07:46;3.15;;;2.00;;
8542;SDS011;4309;42.658;23.380;2023-03-01T02:08:22;2.70;;;1.50;;
8542;SDS011;4309;42.658;23.380;2023-03-01T02:09:02;3.67;;;1.98;;
8542;SDS011;4309;42.658;23.380;2023-03-01T02:09:42;2.90;;;1.80;;
8542;SDS011;4309;42.658;23.380;2023-03-01T02:10:19;3.10;;;1.88;;
8542;SDS011;4309;42.658;23.380;2023-03-01T02:10:50;3.15;;;1.95;;
8542;SDS011;4309;42.658;23.380;2023-03-01T02:11:25;3.10;;;1.95;;
8542;SDS011;4309;42.658;23.380;2023-03-01T02:11:58;3.35;;;2.10;;
8542;SDS011;4309;42.658;23.380;2023-03-01T02:12:32;3.28;;;1.75;;
8542;SDS011;4309;42.658;23.380;2023-03-01T02:13:08;2.88;;;1.58;;
8542;SDS011;4309;42.658;23.380;2023-03-01T02:13:41;3.00;;;1.90;;
8542;SDS011;4309;42.658;23.380;2023-03-01T02:14:14;2.90;;;1.52;;
8542;SDS011;4309;42.658;23.380;2023-03-01T02:14:47;3.40;;;2.13;;
8542;SDS011;4309;42.658;23.380;2023-03-01T02:15:19;3.22;;;2.40;;
8542;SDS011;4309;42.658;23.380;2023-03-01T02:15:51;3.17;;;2.20;;
8542;SDS011;4309;42.658;23.380;2023-03-01T02:16:24;4.07;;;1.83;;
8542;SDS011;4309;42.658;23.380;2023-03-01T02:16:57;4.95;;;1.70;;
8542;SDS011;4309;42.658;23.380;2023-03-01T02:17:29;3.25;;;1.65;;
8542;SDS011;4309;42.658;23.380;2023-03-01T02:18:02;3.38;;;1.98;;
8542;SDS011;4309;42.658;23.380;2023-03-01T02:18:36;3.00;;;2.05;;
8542;SDS011;4309;42.658;23.380;2023-03-01T02:19:13;4.13;;;2.15;;
8542;SDS011;4309;42.658;23.380;2023-03-01T02:19:57;3.10;;;2.08;;
8542;SDS011;4309;42.658;23.380;2023-03-01T02:20:39;4.45;;;2.22;;
8542;SDS011;4309;42.658;23.380;2023-03-01T02:21:25;3.50;;;2.33;;
8542;SDS011;4309;42.658;23.380;2023-03-01T02:22:11;3.40;;;2.08;;
8542;SDS011;4309;42.658;23.380;2023-03-01T02:22:51;3.45;;;2.30;;
8542;SDS011;4309;42.658;23.380;2023-03-01T02:23:26;4.15;;;2.15;;
8542;SDS011;4309;42.658;23.380;2023-03-01T02:23:59;3.28;;;2.10;;
8542;SDS011;4309;42.658;23.380;2023-03-01T02:24:43;3.50;;;2.20;;
8542;SDS011;4309;42.658;23.380;2023-03-01T02:25:29;3.42;;;1.98;;
8542;SDS011;4309;42.658;23.380;2023-03-01T02:26:06;2.92;;;1.70;;
8542;SDS011;4309;42.658;23.380;2023-03-01T02:26:47;2.92;;;1.50;;
8542;SDS011;4309;42.658;23.380;2023-03-01T02:27:22;2.65;;;1.50;;
8542;SDS011;4309;42.658;23.380;2023-03-01T02:27:58;3.40;;;2.00;;
8542;SDS011;4309;42.658;23.380;2023-03-01T02:28:43;2.80;;;1.70;;
8542;SDS011;4309;42.658;23.380;2023-03-01T02:29:16;2.83;;;1.58;;
8542;SDS011;4309;42.658;23.380;2023-03-01T02:29:48;3.25;;;1.90;;
8542;SDS011;4309;42.658;23.380;2023-03-01T02:30:21;3.47;;;2.20;;
8542;SDS011;4309;42.658;23.380;2023-03-01T02:30:55;3.20;;;2.03;;
8542;SDS011;4309;42.658;23.380;2023-03-01T02:31:46;3.08;;;1.63;;
8542;SDS011;4309;42.658;23.380;2023-03-01T02:32:18;2.90;;;1.70;;
8542;SDS011;4309;42.658;23.380;2023-03-01T02:32:57;2.75;;;1.70;;
8542;SDS011;4309;42.658;23.380;2023-03-01T02:33:35;3.45;;;2.10;;
8542;SDS011;4309;42.658;23.380;2023-03-01T02:34:09;3.33;;;1.83;;
8542;SDS011;4309;42.658;23.380;2023-03-01T02:34:44;3.88;;;2.15;;
8542;SDS011;4309;42.658;23.380;2023-03-01T02:35:17;3.33;;;1.95;;
8542;SDS011;4309;42.658;23.380;2023-03-01T02:35:50;3.10;;;2.00;;
8542;SDS011;4309;42.658;23.380;2023-03-01T02:36:26;4.35;;;2.28;;
8542;SDS011;4309;42.658;23.380;2023-03-01T02:37:02;3.92;;;2.33;;
8542;SDS011;4309;42.658;23.380;2023-03-01T02:37:40;3.22;;;1.90;;
8542;SDS011;4309;42.658;23.380;2023-03-01T02:38:13;3.45;;;2.13;;
8542;SDS011;4309;42.658;23.380;2023-03-01T02:38:46;3.05;;;1.60;;
8542;SDS011;4309;42.658;23.380;2023-03-01T02:39:21;3.25;;;1.77;;
8542;SDS011;4309;42.658;23.380;2023-03-01T02:39:58;3.17;;;1.95;;
8542;SDS011;4309;42.658;23.380;2023-03-01T02:40:35;3.65;;;2.13;;
8542;SDS011;4309;42.658;23.380;2023-03-01T02:41:10;3.92;;;2.40;;
8542;SDS011;4309;42.658;23.380;2023-03-01T02:41:47;3.83;;;2.30;;
8542;SDS011;4309;42.658;23.380;2023-03-01T02:42:22;3.28;;;1.83;;
8542;SDS011;4309;42.658;23.380;2023-03-01T02:42:58;3.20;;;2.10;;
8542;SDS011;4309;42.658;23.380;2023-03-01T02:43:31;4.03;;;1.90;;
8542;SDS011;4309;42.658;23.380;2023-03-01T02:44:06;3.40;;;2.05;;
8542;SDS011;4309;42.658;23.380;2023-03-01T02:44:39;3.30;;;1.65;;
8542;SDS011;4309;42.658;23.380;2023-03-01T02:45:12;3.40;;;2.08;;
8542;SDS011;4309;42.658;23.380;2023-03-01T02:45:47;3.97;;;2.25;;
8542;SDS011;4309;42.658;23.380;2023-03-01T02:46:22;3.80;;;2.15;;
8542;SDS011;4309;42.658;23.380;2023-03-01T02:46:56;3.28;;;2.00;;
8542;SDS011;4309;42.658;23.380;2023-03-01T02:47:34;3.45;;;2.38;;
8542;SDS011;4309;42.658;23.380;2023-03-01T02:48:06;3.53;;;2.22;;
8542;SDS011;4309;42.658;23.380;2023-03-01T02:48:42;3.95;;;2.10;;
8542;SDS011;4309;42.658;23.380;2023-03-01T02:49:21;3.28;;;1.88;;
8542;SDS011;4309;42.658;23.380;2023-03-01T02:49:55;3.50;;;1.52;;
8542;SDS011;4309;42.658;23.380;2023-03-01T02:50:36;3.75;;;2.13;;
8542;SDS011;4309;42.658;23.380;2023-03-01T02:51:41;3.22;;;2.15;;
8542;SDS011;4309;42.658;23.380;2023-03-01T02:53:15;3.20;;;2.00;;
8542;SDS011;4309;42.658;23.380;2023-03-01T02:53:55;3.50;;;1.88;;
8542;SDS011;4309;42.658;23.380;2023-03-01T02:54:36;3.45;;;1.88;;
8542;SDS011;4309;42.658;23.380;2023-03-01T02:55:15;5.18;;;2.22;;
8542;SDS011;4309;42.658;23.380;2023-03-01T02:55:47;3.30;;;2.10;;
8542;SDS011;4309;42.658;23.380;2023-03-01T02:56:19;3.33;;;2.08;;
8542;SDS011;4309;42.658;23.380;2023-03-01T02:56:52;2.72;;;1.50;;
8542;SDS011;4309;42.658;23.380;2023-03-01T02:57:25;4.63;;;2.20;;
8542;SDS011;4309;42.658;23.380;2023-03-01T02:57:59;3.97;;;2.60;;
8542;SDS011;4309;42.658;23.380;2023-03-01T02:58:35;3.90;;;2.10;;
8542;SDS011;4309;42.658;23.380;2023-03-01T02:59:19;4.18;;;2.20;;
8542;SDS011;4309;42.658;23.380;2023-03-01T02:59:53;3.30;;;1.63;;
8542;SDS011;4309;42.658;23.380;2023-03-01T03:00:28;4.18;;;2.15;;
8542;SDS011;4309;42.658;23.380;2023-03-01T03:01:04;3.85;;;2.10;;
8542;SDS011;4309;42.658;23.380;2023-03-01T03:01:36;4.50;;;2.40;;
8542;SDS011;4309;42.658;23.380;2023-03-01T03:02:08;4.30;;;2.83;;
8542;SDS011;4309;42.658;23.380;2023-03-01T03:02:52;3.95;;;2.45;;
8542;SDS011;4309;42.658;23.380;2023-03-01T03:03:27;6.38;;;2.15;;
8542;SDS011;4309;42.658;23.380;2023-03-01T03:04:00;4.10;;;2.40;;
8542;SDS011;4309;42.658;23.380;2023-03-01T03:04:32;3.40;;;1.90;;
8542;SDS011;4309;42.658;23.380;2023-03-01T03:05:06;4.20;;;2.63;;
8542;SDS011;4309;42.658;23.380;2023-03-01T03:05:40;4.07;;;2.80;;
8542;SDS011;4309;42.658;23.380;2023-03-01T03:06:13;4.43;;;2.97;;
8542;SDS011;4309;42.658;23.380;2023-03-01T03:06:44;3.53;;;2.10;;
8542;SDS011;4309;42.658;23.380;2023-03-01T03:07:16;4.65;;;2.72;;
8542;SDS011;4309;42.658;23.380;2023-03-01T03:07:49;4.47;;;2.92;;
8542;SDS011;4309;42.658;23.380;2023-03-01T03:08:21;5.65;;;2.78;;
8542;SDS011;4309;42.658;23.380;2023-03-01T03:08:55;4.00;;;2.47;;
8542;SDS011;4309;42.658;23.380;2023-03-01T03:09:27;4.32;;;2.85;;
8542;SDS011;4309;42.658;23.380;2023-03-01T03:09:59;4.70;;;2.70;;
8542;SDS011;4309;42.658;23.380;2023-03-01T03:10:33;4.25;;;2.97;;
8542;SDS011;4309;42.658;23.380;2023-03-01T03:11:07;5.55;;;2.45;;
8542;SDS011;4309;42.658;23.380;2023-03-01T03:11:39;4.65;;;2.90;;
8542;SDS011;4309;42.658;23.380;2023-03-01T03:12:12;4.88;;;2.97;;
8542;SDS011;4309;42.658;23.380;2023-03-01T03:12:48;4.00;;;2.60;;
8542;SDS011;4309;42.658;23.380;2023-03-01T03:13:20;4.15;;;2.65;;
8542;SDS011;4309;42.658;23.380;2023-03-01T03:13:53;4.13;;;2.85;;
8542;SDS011;4309;42.658;23.380;2023-03-01T03:14:27;4.13;;;2.30;;
8542;SDS011;4309;42.658;23.380;2023-03-01T03:14:59;4.32;;;2.60;;
8542;SDS011;4309;42.658;23.380;2023-03-01T03:15:31;4.30;;;2.90;;
8542;SDS011;4309;42.658;23.380;2023-03-01T03:16:07;3.58;;;2.40;;
8542;SDS011;4309;42.658;23.380;2023-03-01T03:16:40;5.25;;;2.70;;
8542;SDS011;4309;42.658;23.380;2023-03-01T03:17:12;4.85;;;2.72;;
8542;SDS011;4309;42.658;23.380;2023-03-01T03:17:45;4.10;;;2.50;;
8542;SDS011;4309;42.658;23.380;2023-03-01T03:18:18;4.68;;;2.75;;
8542;SDS011;4309;42.658;23.380;2023-03-01T03:18:50;4.18;;;2.80;;
8542;SDS011;4309;42.658;23.380;2023-03-01T03:19:23;4.35;;;2.35;;
8542;SDS011;4309;42.658;23.380;2023-03-01T03:19:55;4.65;;;2.45;;
8542;SDS011;4309;42.658;23.380;2023-03-01T03:20:27;4.15;;;2.33;;
8542;SDS011;4309;42.658;23.380;2023-03-01T03:21:00;4.25;;;2.70;;
8542;SDS011;4309;42.658;23.380;2023-03-01T03:21:33;4.32;;;2.72;;
8542;SDS011;4309;42.658;23.380;2023-03-01T03:22:05;3.95;;;2.67;;
8542;SDS011;4309;42.658;23.380;2023-03-01T03:22:41;3.78;;;2.42;;
8542;SDS011;4309;42.658;23.380;2023-03-01T03:23:14;4.53;;;2.80;;
8542;SDS011;4309;42.658;23.380;2023-03-01T03:23:46;4.20;;;2.83;;
8542;SDS011;4309;42.658;23.380;2023-03-01T03:24:19;4.80;;;2.40;;
8542;SDS011;4309;42.658;23.380;2023-03-01T03:24:52;4.32;;;2.20;;
8542;SDS011;4309;42.658;23.380;2023-03-01T03:25:24;4.45;;;2.47;;
8542;SDS011;4309;42.658;23.380;2023-03-01T03:25:59;4.00;;;2.33;;
8542;SDS011;4309;42.658;23.380;2023-03-01T03:26:31;4.07;;;2.83;;
8542;SDS011;4309;42.658;23.380;2023-03-01T03:27:04;4.38;;;2.50;;
8542;SDS011;4309;42.658;23.380;2023-03-01T03:27:37;4.18;;;2.50;;
8542;SDS011;4309;42.658;23.380;2023-03-01T03:28:09;3.60;;;2.22;;
8542;SDS011;4309;42.658;23.380;2023-03-01T03:28:41;3.83;;;2.42;;
8542;SDS011;4309;42.658;23.380;2023-03-01T03:29:14;3.72;;;2.22;;
8542;SDS011;4309;42.658;23.380;2023-03-01T03:29:47;6.45;;;2.45;;
8542;SDS011;4309;42.658;23.380;2023-03-01T03:30:19;3.75;;;2.17;;
8542;SDS011;4309;42.658;23.380;2023-03-01T03:30:52;3.63;;;2.40;;
8542;SDS011;4309;42.658;23.380;2023-03-01T03:31:24;3.88;;;2.42;;
8542;SDS011;4309;42.658;23.380;2023-03-01T03:31:57;3.20;;;2.10;;